Time,TemperatureF,DewpointF,PressureIn,WindDirection,WindDirectionDegrees,WindSpeedMPH,WindSpeedGustMPH,Humidity,HourlyPrecipIn,Conditions,Clouds,dailyrainin,SoftwareType,DateUTC
2013-02-21 00:00:00,27.5,13.0,30.01,SW,216,0.0,0.0,54,0.00,,,0.00,Weather View 32 v70,2013-02-21 05:00:00,
2013-02-21 00:05:00,27.5,12.2,30.01,SW,216,0.0,0.0,52,0.00,,,0.00,Weather View 32 v70,2013-02-21 05:05:00,
2013-02-21 00:10:00,27.5,13.4,30.01,SW,216,0.0,0.0,55,0.00,,,0.00,Weather View 32 v70,2013-02-21 05:10:00,
2013-02-21 00:15:00,27.3,14.9,30.00,SW,216,0.0,0.0,59,0.00,,,0.00,Weather View 32 v70,2013-02-21 05:15:00,
2013-02-21 00:20:00,27.1,13.5,30.00,SW,216,0.0,0.0,56,0.00,,,0.00,Weather View 32 v70,2013-02-21 05:20:00,
2013-02-21 00:25:00,27.0,13.4,30.00,SW,216,0.0,0.0,56,0.00,,,0.00,Weather View 32 v70,2013-02-21 05:25:00,
2013-02-21 00:30:00,27.0,11.3,30.01,SW,216,0.0,0.0,51,0.00,,,0.00,Weather View 32 v70,2013-02-21 05:30:00,
2013-02-21 00:35:00,27.0,13.0,30.01,SW,216,0.0,0.0,55,0.00,,,0.00,Weather View 32 v70,2013-02-21 05:35:00,
2013-02-21 00:40:00,26.9,14.9,30.01,SW,216,0.0,0.0,60,0.00,,,0.00,Weather View 32 v70,2013-02-21 05:40:00,
2013-02-21 00:45:00,26.6,14.6,30.01,SW,220,0.0,0.0,60,0.00,,,0.00,Weather View 32 v70,2013-02-21 05:45:00,
2013-02-21 00:50:00,26.4,14.8,30.01,SW,219,0.0,0.0,61,0.00,,,0.00,Weather View 32 v70,2013-02-21 05:50:00,
2013-02-21 00:56:00,26.3,15.4,30.01,SW,219,0.0,0.0,63,0.00,,,0.00,Weather View 32 v70,2013-02-21 05:56:00,
2013-02-21 01:01:00,26.2,15.0,30.01,SW,219,0.0,0.0,62,0.00,,,0.00,Weather View 32 v70,2013-02-21 06:01:00,
2013-02-21 01:06:00,26.2,15.3,30.01,SW,219,0.0,0.0,63,0.00,,,0.00,Weather View 32 v70,2013-02-21 06:06:00,
2013-02-21 01:11:00,26.2,13.8,30.01,SW,219,0.0,0.0,59,0.00,,,0.00,Weather View 32 v70,2013-02-21 06:11:00,
2013-02-21 01:16:00,26.2,13.4,30.01,SW,219,0.0,0.0,58,0.00,,,0.00,Weather View 32 v70,2013-02-21 06:16:00,
2013-02-21 01:21:00,26.2,14.6,30.01,SW,219,0.0,0.0,61,0.00,,,0.00,Weather View 32 v70,2013-02-21 06:21:00,
2013-02-21 01:26:00,26.3,14.7,30.01,SW,219,0.0,0.0,61,0.00,,,0.00,Weather View 32 v70,2013-02-21 06:26:00,
2013-02-21 01:31:00,26.5,14.5,30.02,SW,219,0.0,0.0,60,0.00,,,0.00,Weather View 32 v70,2013-02-21 06:31:00,
2013-02-21 01:36:00,26.6,15.0,30.02,SW,219,0.0,0.0,61,0.00,,,0.00,Weather View 32 v70,2013-02-21 06:36:00,
2013-02-21 01:41:00,26.8,15.1,30.03,SW,219,0.0,0.0,61,0.00,,,0.00,Weather View 32 v70,2013-02-21 06:41:00,
2013-02-21 01:46:00,27.1,15.1,30.03,SW,219,0.0,0.0,60,0.00,,,0.00,Weather View 32 v70,2013-02-21 06:46:00,
2013-02-21 01:51:00,27.4,14.6,30.03,SW,219,0.0,0.0,58,0.00,,,0.00,Weather View 32 v70,2013-02-21 06:51:00,
2013-02-21 01:56:00,27.7,16.4,30.02,SW,219,0.0,0.0,62,0.00,,,0.00,Weather View 32 v70,2013-02-21 06:56:00,
2013-02-21 02:01:00,27.8,15.7,30.02,SW,219,0.0,0.0,60,0.00,,,0.00,Weather View 32 v70,2013-02-21 07:01:00,
2013-02-21 02:06:00,27.8,15.7,30.01,SW,219,0.0,0.0,60,0.00,,,0.00,Weather View 32 v70,2013-02-21 07:06:00,
2013-02-21 02:11:00,27.9,16.2,30.02,SW,219,0.0,0.0,61,0.00,,,0.00,Weather View 32 v70,2013-02-21 07:11:00,
2013-02-21 02:16:00,27.9,16.2,30.02,SW,219,0.0,0.0,61,0.00,,,0.00,Weather View 32 v70,2013-02-21 07:16:00,
2013-02-21 02:21:00,28.1,15.6,30.02,SW,218,0.0,0.0,59,0.00,,,0.00,Weather View 32 v70,2013-02-21 07:21:00,
2013-02-21 02:26:00,28.2,16.8,30.02,SW,223,0.0,0.0,62,0.00,,,0.00,Weather View 32 v70,2013-02-21 07:26:00,
2013-02-21 02:31:00,28.2,17.2,30.02,North,10,0.0,0.0,63,0.00,,,0.00,Weather View 32 v70,2013-02-21 07:31:00,
2013-02-21 02:36:00,28.1,16.8,30.02,North,10,0.0,0.0,62,0.00,,,0.00,Weather View 32 v70,2013-02-21 07:36:00,
2013-02-21 02:41:00,28.0,16.7,30.02,North,10,0.0,0.0,62,0.00,,,0.00,Weather View 32 v70,2013-02-21 07:41:00,
2013-02-21 02:46:00,27.8,16.5,30.02,North,10,0.0,0.0,62,0.00,,,0.00,Weather View 32 v70,2013-02-21 07:46:00,
2013-02-21 02:51:00,27.7,16.4,30.02,North,10,0.0,0.0,62,0.00,,,0.00,Weather View 32 v70,2013-02-21 07:51:00,
2013-02-21 02:56:00,27.5,16.6,30.02,North,10,0.0,0.0,63,0.00,,,0.00,Weather View 32 v70,2013-02-21 07:56:00,
2013-02-21 03:01:00,27.3,17.1,30.01,North,10,0.0,0.0,65,0.00,,,0.00,Weather View 32 v70,2013-02-21 08:01:00,
2013-02-21 03:06:00,27.1,15.8,30.01,North,10,0.0,0.0,62,0.00,,,0.00,Weather View 32 v70,2013-02-21 08:06:00,
2013-02-21 03:11:00,27.0,15.0,30.01,North,10,0.0,0.0,60,0.00,,,0.00,Weather View 32 v70,2013-02-21 08:11:00,
2013-02-21 03:16:00,26.9,16.0,30.01,North,10,0.0,0.0,63,0.00,,,0.00,Weather View 32 v70,2013-02-21 08:16:00,
2013-02-21 03:21:00,26.7,15.1,30.01,North,11,0.0,0.0,61,0.00,,,0.00,Weather View 32 v70,2013-02-21 08:21:00,
2013-02-21 03:26:00,26.5,15.2,30.01,NNW,337,0.0,0.0,62,0.00,,,0.00,Weather View 32 v70,2013-02-21 08:26:00,
2013-02-21 03:31:00,26.6,15.0,30.01,SSW,201,0.0,0.0,61,0.00,,,0.00,Weather View 32 v70,2013-02-21 08:31:00,
2013-02-21 03:36:00,26.6,15.7,30.02,SSW,203,0.0,0.0,63,0.00,,,0.00,Weather View 32 v70,2013-02-21 08:36:00,
2013-02-21 03:41:00,26.3,15.4,30.03,West,266,0.0,0.0,63,0.00,,,0.00,Weather View 32 v70,2013-02-21 08:41:00,
2013-02-21 03:46:00,26.1,15.2,30.03,SW,221,0.0,0.0,63,0.00,,,0.00,Weather View 32 v70,2013-02-21 08:46:00,
2013-02-21 03:51:00,26.0,15.1,30.02,SW,221,0.0,0.0,63,0.00,,,0.00,Weather View 32 v70,2013-02-21 08:51:00,
2013-02-21 03:56:00,26.0,15.5,30.02,SW,221,0.0,0.0,64,0.00,,,0.00,Weather View 32 v70,2013-02-21 08:56:00,
2013-02-21 04:01:00,25.9,16.1,30.02,SW,221,0.0,0.0,66,0.00,,,0.00,Weather View 32 v70,2013-02-21 09:01:00,
2013-02-21 04:06:00,25.7,15.2,30.02,SSW,213,0.0,0.0,64,0.00,,,0.00,Weather View 32 v70,2013-02-21 09:06:00,
2013-02-21 04:11:00,25.6,15.1,30.02,SSW,213,0.0,0.0,64,0.00,,,0.00,Weather View 32 v70,2013-02-21 09:11:00,
2013-02-21 04:16:00,25.7,15.6,30.02,SW,214,0.0,0.0,65,0.00,,,0.00,Weather View 32 v70,2013-02-21 09:16:00,
2013-02-21 04:21:00,25.8,16.4,30.02,SSW,213,0.0,0.0,67,0.00,,,0.00,Weather View 32 v70,2013-02-21 09:21:00,
2013-02-21 04:26:00,25.7,15.9,30.02,SSW,213,0.0,0.0,66,0.00,,,0.00,Weather View 32 v70,2013-02-21 09:26:00,
2013-02-21 04:31:00,25.5,15.7,30.02,SSW,213,0.0,0.0,66,0.00,,,0.00,Weather View 32 v70,2013-02-21 09:31:00,
2013-02-21 04:36:00,25.3,15.5,30.02,SSW,213,0.0,0.0,66,0.00,,,0.00,Weather View 32 v70,2013-02-21 09:36:00,
2013-02-21 04:41:00,25.2,15.4,30.02,SSW,212,0.0,0.0,66,0.00,,,0.00,Weather View 32 v70,2013-02-21 09:41:00,
2013-02-21 04:46:00,25.2,15.8,30.03,SSW,212,0.0,0.0,67,0.00,,,0.00,Weather View 32 v70,2013-02-21 09:46:00,
2013-02-21 04:51:00,25.1,16.4,30.03,SSW,212,0.0,0.0,69,0.00,,,0.00,Weather View 32 v70,2013-02-21 09:51:00,
2013-02-21 04:56:00,25.2,15.1,30.03,SSW,212,0.0,0.0,65,0.00,,,0.00,Weather View 32 v70,2013-02-21 09:56:00,
2013-02-21 05:01:00,25.1,15.7,30.03,SW,214,0.0,0.0,67,0.00,,,0.00,Weather View 32 v70,2013-02-21 10:01:00,
2013-02-21 05:06:00,25.1,15.7,30.03,SSW,213,0.0,0.0,67,0.00,,,0.00,Weather View 32 v70,2013-02-21 10:06:00,
2013-02-21 05:11:00,24.9,16.2,30.02,SSW,213,0.0,0.0,69,0.00,,,0.00,Weather View 32 v70,2013-02-21 10:11:00,
2013-02-21 05:16:00,24.8,16.1,30.03,SSW,213,0.0,0.0,69,0.00,,,0.00,Weather View 32 v70,2013-02-21 10:16:00,
2013-02-21 05:21:00,24.7,16.0,30.03,SSW,213,0.0,0.0,69,0.00,,,0.00,Weather View 32 v70,2013-02-21 10:21:00,
2013-02-21 05:26:00,24.6,15.9,30.03,SSW,211,0.0,0.0,69,0.00,,,0.00,Weather View 32 v70,2013-02-21 10:26:00,
2013-02-21 05:31:00,24.5,16.4,30.03,SSW,212,0.0,0.0,71,0.00,,,0.00,Weather View 32 v70,2013-02-21 10:31:00,
2013-02-21 05:36:00,24.6,15.9,30.03,SSW,212,0.0,0.0,69,0.00,,,0.00,Weather View 32 v70,2013-02-21 10:36:00,
2013-02-21 05:41:00,24.7,16.0,30.03,SSW,211,0.0,0.0,69,0.00,,,0.00,Weather View 32 v70,2013-02-21 10:41:00,
2013-02-21 05:46:00,24.6,16.2,30.03,SSW,209,0.0,0.0,70,0.00,,,0.00,Weather View 32 v70,2013-02-21 10:46:00,
2013-02-21 05:51:00,24.6,15.9,30.03,SSW,208,0.0,0.0,69,0.00,,,0.00,Weather View 32 v70,2013-02-21 10:51:00,
2013-02-21 05:56:00,24.7,16.3,30.03,SSW,208,0.0,0.0,70,0.00,,,0.00,Weather View 32 v70,2013-02-21 10:56:00,
2013-02-21 06:01:00,24.9,16.5,30.04,SSW,207,0.0,0.0,70,0.00,,,0.00,Weather View 32 v70,2013-02-21 11:01:00,
2013-02-21 06:06:00,25.0,16.3,30.04,SSW,213,0.0,0.0,69,0.00,,,0.00,Weather View 32 v70,2013-02-21 11:06:00,
2013-02-21 06:11:00,25.2,17.4,30.04,NNE,32,0.0,0.0,72,0.00,,,0.00,Weather View 32 v70,2013-02-21 11:11:00,
2013-02-21 06:16:00,25.2,17.1,30.04,NNE,26,0.0,0.0,71,0.00,,,0.00,Weather View 32 v70,2013-02-21 11:16:00,
2013-02-21 06:21:00,25.1,16.7,30.04,ENE,65,0.0,0.0,70,0.00,,,0.00,Weather View 32 v70,2013-02-21 11:21:00,
2013-02-21 06:26:00,25.0,16.6,30.04,ENE,65,0.0,0.0,70,0.00,,,0.00,Weather View 32 v70,2013-02-21 11:26:00,
2013-02-21 06:31:00,24.9,17.2,30.04,ENE,66,0.0,0.0,72,0.00,,,0.00,Weather View 32 v70,2013-02-21 11:31:00,
2013-02-21 06:36:00,25.0,17.6,30.04,ENE,66,0.0,0.0,73,0.00,,,0.00,Weather View 32 v70,2013-02-21 11:36:00,
2013-02-21 06:41:00,24.9,17.5,30.05,East,80,0.0,0.0,73,0.00,,,0.00,Weather View 32 v70,2013-02-21 11:41:00,
2013-02-21 06:46:00,24.8,17.4,30.05,East,80,0.0,0.0,73,0.00,,,0.00,Weather View 32 v70,2013-02-21 11:46:00,
2013-02-21 06:52:00,24.6,17.2,30.04,East,80,0.0,0.0,73,0.00,,,0.00,Weather View 32 v70,2013-02-21 11:52:00,
2013-02-21 06:57:00,24.4,16.7,30.04,East,80,0.0,0.0,72,0.00,,,0.00,Weather View 32 v70,2013-02-21 11:57:00,
2013-02-21 07:02:00,24.2,16.5,30.05,East,81,0.0,0.0,72,0.00,,,0.00,Weather View 32 v70,2013-02-21 12:02:00,
2013-02-21 07:07:00,24.2,16.5,30.05,East,81,0.0,0.0,72,0.00,,,0.00,Weather View 32 v70,2013-02-21 12:07:00,
2013-02-21 07:12:00,24.2,16.5,30.05,East,81,0.0,0.0,72,0.00,,,0.00,Weather View 32 v70,2013-02-21 12:12:00,
2013-02-21 07:17:00,24.3,16.9,30.06,East,80,0.0,0.0,73,0.00,,,0.00,Weather View 32 v70,2013-02-21 12:17:00,
2013-02-21 07:22:00,24.2,16.8,30.06,NE,49,0.0,0.0,73,0.00,,,0.00,Weather View 32 v70,2013-02-21 12:22:00,
2013-02-21 07:27:00,24.2,16.8,30.06,NE,50,0.0,0.0,73,0.00,,,0.00,Weather View 32 v70,2013-02-21 12:27:00,
2013-02-21 07:32:00,24.0,16.9,30.06,NE,50,0.0,0.0,74,0.00,,,0.00,Weather View 32 v70,2013-02-21 12:32:00,
2013-02-21 07:37:00,23.9,16.8,30.07,NE,50,0.0,0.0,74,0.00,,,0.00,Weather View 32 v70,2013-02-21 12:37:00,
2013-02-21 07:42:00,24.0,17.8,30.07,NE,50,0.0,0.0,77,0.00,,,0.00,Weather View 32 v70,2013-02-21 12:42:00,
2013-02-21 07:47:00,24.0,17.5,30.07,NE,50,0.0,0.0,76,0.00,,,0.00,Weather View 32 v70,2013-02-21 12:47:00,
2013-02-21 07:52:00,24.0,17.5,30.07,NE,50,0.0,0.0,76,0.00,,,0.00,Weather View 32 v70,2013-02-21 12:52:00,
2013-02-21 07:57:00,24.1,17.6,30.07,NE,51,0.0,0.0,76,0.00,,,0.00,Weather View 32 v70,2013-02-21 12:57:00,
2013-02-21 08:02:00,24.0,17.5,30.07,NE,51,0.0,0.0,76,0.00,,,0.00,Weather View 32 v70,2013-02-21 13:02:00,
2013-02-21 08:07:00,24.0,17.2,30.07,NE,51,0.0,0.0,75,0.00,,,0.00,Weather View 32 v70,2013-02-21 13:07:00,
2013-02-21 08:12:00,24.1,17.9,30.07,NE,51,0.0,0.0,77,0.00,,,0.00,Weather View 32 v70,2013-02-21 13:12:00,
2013-02-21 08:17:00,24.3,17.5,30.07,NE,51,0.0,0.0,75,0.00,,,0.00,Weather View 32 v70,2013-02-21 13:17:00,
2013-02-21 08:22:00,24.4,17.6,30.08,NE,51,0.0,0.0,75,0.00,,,0.00,Weather View 32 v70,2013-02-21 13:22:00,
2013-02-21 08:27:00,24.5,18.0,30.08,NE,51,0.0,0.0,76,0.00,,,0.00,Weather View 32 v70,2013-02-21 13:27:00,
2013-02-21 08:32:00,24.5,18.3,30.08,NE,51,0.0,0.0,77,0.00,,,0.00,Weather View 32 v70,2013-02-21 13:32:00,